createdAt,value
2023-03-29T00:01:35.699Z,3.88
2023-03-29T00:04:21.128Z,5.22
2023-03-29T00:07:06.616Z,4.80
2023-03-29T00:09:51.685Z,5.32
2023-03-29T00:15:22.153Z,3.50
2023-03-29T00:18:07.304Z,6.45
2023-03-29T00:20:57.206Z,6.20
2023-03-29T00:23:41.962Z,4.20
2023-03-29T00:26:26.646Z,4.85
2023-03-29T00:29:11.641Z,4.38
2023-03-29T00:31:56.776Z,4.38
2023-03-29T00:34:42.112Z,6.32
2023-03-29T00:37:29.348Z,4.65
2023-03-29T00:40:14.741Z,3.78
2023-03-29T00:43:00.017Z,4.18
2023-03-29T00:45:44.869Z,3.38
2023-03-29T00:48:30.781Z,3.65
2023-03-29T00:51:18.426Z,4.35
2023-03-29T00:54:07.392Z,3.50
2023-03-29T00:56:52.438Z,5.18
2023-03-29T01:02:26.847Z,4.30
2023-03-29T01:05:19.481Z,4.07
2023-03-29T01:08:25.142Z,4.03
2023-03-29T01:11:14.373Z,3.50
2023-03-29T01:14:11.613Z,4.63
2023-03-29T01:16:56.875Z,3.80
2023-03-29T01:19:51.248Z,3.75
2023-03-29T01:22:38.144Z,4.32
2023-03-29T01:25:45.252Z,6.22
2023-03-29T01:28:37.420Z,4.93
2023-03-29T01:31:32.193Z,4.30
2023-03-29T01:34:27.552Z,3.10
2023-03-29T01:37:23.968Z,4.70
2023-03-29T01:40:09.584Z,3.08
2023-03-29T01:43:10.990Z,3.67
2023-03-29T01:46:21.001Z,3.13
2023-03-29T01:49:20.506Z,3.90
2023-03-29T01:52:24.465Z,3.75
2023-03-29T01:55:17.830Z,4.65
2023-03-29T01:58:06.070Z,4.00
2023-03-29T02:00:55.778Z,5.43
2023-03-29T02:03:46.579Z,4.07
2023-03-29T02:06:33.424Z,4.28
2023-03-29T02:09:19.193Z,3.63
2023-03-29T02:12:07.827Z,3.72
2023-03-29T02:14:52.638Z,5.85
2023-03-29T02:17:37.644Z,5.72
2023-03-29T02:20:30.236Z,6.50
2023-03-29T02:23:20.861Z,4.78
2023-03-29T02:26:06.084Z,4.45
2023-03-29T02:31:55.881Z,5.95
2023-03-29T02:34:58.447Z,5.40
2023-03-29T02:37:48.872Z,5.72
2023-03-29T02:40:36.994Z,6.57
2023-03-29T02:43:26.027Z,6.38
2023-03-29T02:46:11.992Z,6.93
2023-03-29T02:48:58.367Z,5.55
2023-03-29T02:51:46.647Z,6.60
2023-03-29T02:54:32.422Z,6.25
2023-03-29T02:57:17.567Z,5.60
2023-03-29T03:00:04.665Z,4.60
2023-03-29T03:02:50.470Z,6.72
2023-03-29T03:05:35.608Z,7.82
2023-03-29T03:08:20.725Z,6.82
2023-03-29T03:11:06.461Z,5.03
2023-03-29T03:16:36.509Z,3.75
2023-03-29T03:19:21.615Z,4.97
2023-03-29T03:22:09.295Z,4.93
2023-03-29T03:24:55.488Z,4.30
2023-03-29T03:27:40.649Z,4.68
2023-03-29T03:30:25.413Z,5.15
2023-03-29T03:33:29.745Z,4.90
2023-03-29T03:36:43.677Z,5.32
2023-03-29T03:39:29.738Z,4.55
2023-03-29T03:45:01.193Z,6.40
2023-03-29T03:48:05.266Z,8.75
2023-03-29T03:51:02.872Z,5.10
2023-03-29T03:53:51.104Z,4.40
2023-03-29T03:56:55.790Z,5.60
2023-03-29T03:59:52.337Z,4.05
2023-03-29T04:02:47.583Z,5.15
2023-03-29T04:05:32.579Z,4.20
2023-03-29T04:11:25.326Z,4.80
2023-03-29T04:14:10.693Z,6.72
2023-03-29T04:17:18.157Z,4.38
2023-03-29T04:20:30.300Z,5.55
2023-03-29T04:23:17.722Z,6.00
2023-03-29T04:26:03.666Z,6.13
2023-03-29T04:29:00.751Z,7.45
2023-03-29T04:31:55.836Z,8.63
2023-03-29T04:35:00.996Z,6.60
2023-03-29T04:37:45.891Z,7.78
2023-03-29T04:40:33.605Z,6.53
2023-03-29T04:43:30.477Z,6.15
2023-03-29T04:46:42.332Z,9.35
2023-03-29T04:49:27.334Z,6.45
2023-03-29T04:52:13.992Z,6.22
2023-03-29T04:55:09.963Z,7.88
2023-03-29T04:58:23.695Z,6.10
2023-03-29T05:01:10.871Z,6.95
2023-03-29T05:04:01.893Z,5.68
2023-03-29T05:06:53.342Z,5.85
2023-03-29T05:09:38.478Z,6.03
2023-03-29T05:12:24.072Z,5.18
2023-03-29T05:15:10.810Z,5.63
2023-03-29T05:17:55.536Z,4.78
2023-03-29T05:20:41.531Z,3.92
2023-03-29T05:23:28.276Z,4.63
2023-03-29T05:26:25.872Z,7.18
2023-03-29T05:29:12.041Z,5.57
2023-03-29T05:32:03.613Z,7.90
2023-03-29T05:34:52.716Z,7.13
2023-03-29T05:37:40.580Z,9.43
2023-03-29T05:40:25.827Z,9.82
2023-03-29T05:43:31.129Z,8.38
2023-03-29T05:46:17.745Z,7.28
2023-03-29T05:49:11.563Z,5.82
2023-03-29T05:52:19.512Z,7.43
2023-03-29T05:57:50.292Z,7.40
2023-03-29T06:00:39.095Z,5.85
2023-03-29T06:03:43.578Z,4.75
2023-03-29T06:06:30.920Z,6.15
2023-03-29T06:09:16.890Z,4.88
2023-03-29T06:12:22.231Z,5.68
2023-03-29T06:15:15.575Z,5.75
2023-03-29T06:18:09.491Z,7.32
2023-03-29T06:20:55.553Z,8.57
2023-03-29T06:23:44.674Z,8.27
2023-03-29T06:26:29.999Z,6.00
2023-03-29T06:32:01.579Z,5.35
2023-03-29T06:35:04.407Z,6.25
2023-03-29T06:37:57.724Z,5.78
2023-03-29T06:41:10.800Z,7.63
2023-03-29T06:44:18.341Z,6.15
2023-03-29T06:47:17.660Z,6.53
2023-03-29T06:50:03.404Z,5.18
2023-03-29T06:53:02.849Z,6.32
2023-03-29T06:55:51.334Z,9.50
2023-03-29T06:59:02.952Z,6.72
2023-03-29T07:01:57.023Z,7.55
2023-03-29T07:11:13.641Z,7.18
2023-03-29T07:14:13.853Z,8.00
2023-03-29T07:17:01.804Z,4.55
2023-03-29T07:19:57.329Z,4.90
2023-03-29T07:23:09.083Z,11.18
2023-03-29T07:25:54.282Z,10.77
2023-03-29T07:28:42.990Z,8.10
2023-03-29T07:31:40.298Z,10.60
2023-03-29T07:34:47.378Z,6.78
2023-03-29T07:37:42.323Z,8.40
2023-03-29T07:40:30.722Z,6.38
2023-03-29T07:43:15.558Z,5.45
2023-03-29T07:46:03.333Z,7.63
2023-03-29T07:48:50.264Z,5.93
2023-03-29T07:51:36.014Z,6.10
2023-03-29T07:54:25.640Z,11.13
2023-03-29T07:57:16.141Z,8.25
2023-03-29T08:00:12.179Z,9.68
2023-03-29T08:02:58.302Z,7.78
2023-03-29T08:05:44.601Z,7.32
2023-03-29T08:08:33.036Z,5.78
2023-03-29T08:11:24.567Z,5.47
2023-03-29T08:14:57.608Z,6.78
2023-03-29T08:17:48.155Z,7.18
2023-03-29T08:20:33.519Z,4.85
2023-03-29T08:23:21.289Z,6.03
2023-03-29T08:26:25.257Z,9.70
2023-03-29T08:29:11.089Z,6.47
2023-03-29T08:31:57.681Z,8.35
2023-03-29T08:34:43.249Z,5.35
2023-03-29T08:37:38.881Z,5.43
2023-03-29T08:40:29.886Z,6.00
2023-03-29T08:43:17.466Z,7.10
2023-03-29T08:46:34.583Z,6.47
2023-03-29T08:49:31.182Z,5.90
2023-03-29T08:52:30.484Z,5.78
2023-03-29T08:55:39.962Z,6.63
2023-03-29T08:58:40.019Z,6.93
2023-03-29T09:01:31.207Z,6.38
2023-03-29T09:04:19.661Z,5.63
2023-03-29T09:07:12.454Z,5.07
2023-03-29T09:10:06.542Z,4.32
2023-03-29T09:13:14.983Z,4.05
2023-03-29T09:16:21.020Z,5.28
2023-03-29T09:19:32.135Z,7.45
2023-03-29T09:22:57.061Z,6.28
2023-03-29T09:26:14.178Z,7.68
2023-03-29T09:29:41.470Z,6.80
2023-03-29T09:32:38.801Z,7.90
2023-03-29T09:35:37.146Z,7.88
2023-03-29T09:38:22.932Z,6.93
2023-03-29T09:41:27.168Z,7.20
2023-03-29T09:44:30.790Z,8.07
2023-03-29T09:47:26.588Z,4.75
2023-03-29T09:50:45.495Z,8.68
2023-03-29T09:53:31.738Z,9.32
2023-03-29T09:56:31.735Z,7.20
2023-03-29T09:59:26.891Z,8.10
2023-03-29T10:02:13.239Z,8.57
2023-03-29T10:05:03.428Z,8.93
2023-03-29T10:07:53.766Z,11.70
2023-03-29T10:10:38.504Z,11.43
2023-03-29T10:16:22.076Z,7.55
2023-03-29T10:19:24.240Z,6.45
2023-03-29T10:22:31.401Z,8.25
2023-03-29T10:25:17.775Z,5.82
2023-03-29T10:31:20.194Z,6.47
2023-03-29T10:34:06.502Z,4.57
2023-03-29T10:36:58.574Z,5.95
2023-03-29T10:39:48.363Z,6.55
2023-03-29T10:42:54.264Z,5.78
2023-03-29T10:45:39.267Z,6.40
2023-03-29T10:48:35.613Z,9.27
2023-03-29T10:51:24.464Z,7.00
2023-03-29T10:54:13.964Z,7.35
2023-03-29T10:57:06.471Z,6.28
2023-03-29T10:59:57.209Z,6.22
2023-03-29T11:03:07.921Z,6.18
2023-03-29T11:06:04.135Z,8.20
2023-03-29T11:09:02.531Z,4.20
2023-03-29T11:12:15.656Z,5.03
2023-03-29T11:15:52.789Z,4.32
2023-03-29T11:19:22.180Z,5.22
2023-03-29T11:22:49.718Z,10.20
2023-03-29T11:25:48.584Z,5.90
2023-03-29T11:28:49.390Z,4.03
2023-03-29T11:31:56.955Z,4.97
2023-03-29T11:34:57.147Z,4.90
2023-03-29T11:37:59.824Z,6.35
2023-03-29T11:41:10.712Z,4.43
2023-03-29T11:44:05.586Z,5.25
2023-03-29T11:47:06.839Z,6.15
2023-03-29T11:49:58.649Z,7.70
2023-03-29T11:52:52.848Z,7.10
2023-03-29T11:55:41.992Z,6.47
2023-03-29T11:58:34.923Z,6.72
2023-03-29T12:01:36.933Z,12.70
2023-03-29T12:04:33.467Z,7.82
2023-03-29T12:07:36.576Z,5.40
2023-03-29T12:10:34.118Z,6.35
2023-03-29T12:13:24.011Z,7.63
2023-03-29T12:16:47.753Z,7.43
2023-03-29T12:19:43.963Z,5.95
2023-03-29T12:22:29.076Z,6.53
2023-03-29T12:28:36.023Z,4.82
2023-03-29T12:31:39.366Z,5.72
2023-03-29T12:34:24.535Z,7.55
2023-03-29T12:37:35.755Z,6.78
2023-03-29T12:40:43.411Z,9.18
2023-03-29T12:44:03.429Z,5.63
2023-03-29T12:47:20.892Z,7.70
2023-03-29T12:50:06.473Z,8.50
2023-03-29T12:52:51.402Z,5.55
2023-03-29T12:55:42.040Z,6.97
2023-03-29T12:58:42.406Z,6.82
2023-03-29T13:01:28.680Z,8.25
2023-03-29T13:04:21.944Z,6.88
2023-03-29T13:07:14.408Z,4.93
2023-03-29T13:10:08.336Z,5.88
2023-03-29T13:12:54.077Z,5.45
2023-03-29T13:15:39.314Z,6.55
2023-03-29T13:19:02.118Z,9.60
2023-03-29T13:21:58.501Z,8.63
2023-03-29T13:25:18.479Z,8.35
2023-03-29T13:28:18.629Z,6.88
2023-03-29T13:31:49.738Z,7.05
2023-03-29T13:34:49.896Z,3.97
2023-03-29T13:37:52.538Z,6.00
2023-03-29T13:40:40.852Z,6.40
2023-03-29T13:43:40.720Z,9.10
2023-03-29T13:46:41.922Z,5.85
2023-03-29T13:49:30.405Z,7.25
2023-03-29T13:52:23.676Z,5.18
2023-03-29T13:55:21.049Z,7.70
2023-03-29T13:58:09.569Z,6.78
2023-03-29T14:01:00.688Z,6.28
2023-03-29T14:03:48.878Z,8.75
2023-03-29T14:06:36.747Z,4.88
2023-03-29T14:09:30.862Z,5.93
2023-03-29T14:12:16.975Z,5.82
2023-03-29T14:15:05.426Z,7.43
2023-03-29T14:17:54.872Z,10.45
2023-03-29T14:20:43.346Z,8.63
2023-03-29T14:23:30.329Z,5.20
2023-03-29T14:26:21.177Z,6.03
2023-03-29T14:29:09.981Z,6.15
2023-03-29T14:31:54.734Z,5.22
2023-03-29T14:37:27.643Z,3.97
2023-03-29T14:40:19.331Z,6.63
2023-03-29T14:43:07.336Z,6.70
2023-03-29T14:45:52.516Z,3.83
2023-03-29T14:48:38.228Z,5.68
2023-03-29T14:51:28.103Z,7.55
2023-03-29T14:54:26.569Z,5.05
2023-03-29T14:57:17.773Z,5.05
2023-03-29T15:00:14.194Z,4.70
2023-03-29T15:03:01.448Z,4.75
2023-03-29T15:06:06.670Z,7.00
2023-03-29T15:09:02.062Z,5.38
2023-03-29T15:11:53.442Z,4.95
2023-03-29T15:14:38.437Z,4.80
2023-03-29T15:20:38.232Z,6.68
2023-03-29T15:23:25.644Z,5.93
2023-03-29T15:26:20.990Z,6.43
2023-03-29T15:29:22.581Z,4.32
2023-03-29T15:32:09.562Z,5.35
2023-03-29T15:35:04.359Z,9.15
2023-03-29T15:37:51.389Z,6.68
2023-03-29T15:40:36.247Z,7.03
2023-03-29T15:43:22.127Z,7.57
2023-03-29T15:46:06.933Z,8.68
2023-03-29T15:51:36.361Z,7.03
2023-03-29T15:54:21.937Z,6.78
2023-03-29T15:57:11.839Z,6.32
2023-03-29T15:59:57.135Z,6.38
2023-03-29T16:02:42.480Z,12.02
2023-03-29T16:05:27.729Z,11.60
2023-03-29T16:08:13.271Z,7.65
2023-03-29T16:10:58.415Z,9.15
2023-03-29T16:13:43.487Z,12.95
2023-03-29T16:19:13.511Z,13.50
2023-03-29T16:21:59.904Z,6.78
2023-03-29T16:24:44.958Z,7.47
2023-03-29T16:30:15.978Z,8.15
2023-03-29T16:33:05.573Z,9.80
2023-03-29T16:35:51.106Z,14.00
2023-03-29T16:41:20.880Z,27.30
2023-03-29T16:44:06.490Z,27.73
2023-03-29T16:46:57.151Z,22.27
2023-03-29T16:49:55.193Z,19.40
2023-03-29T16:52:40.448Z,23.90
2023-03-29T16:55:25.067Z,18.42
2023-03-29T16:58:09.970Z,20.55
2023-03-29T17:03:42.245Z,15.90
2023-03-29T17:06:27.316Z,18.30
2023-03-29T17:09:12.133Z,22.27
2023-03-29T17:11:57.120Z,20.08
2023-03-29T17:17:27.429Z,18.10
2023-03-29T17:20:12.369Z,25.25
2023-03-29T17:25:42.940Z,46.17
2023-03-29T17:28:27.900Z,57.88
2023-03-29T17:33:57.738Z,52.97
2023-03-29T17:36:45.204Z,57.90
2023-03-29T17:39:30.496Z,62.20
2023-03-29T17:42:16.744Z,50.72
2023-03-29T17:45:01.950Z,50.50
2023-03-29T17:50:31.610Z,33.40
2023-03-29T17:53:16.921Z,34.53
2023-03-29T17:56:01.778Z,39.55
2023-03-29T17:58:48.352Z,41.83
2023-03-29T18:01:33.084Z,50.90
2023-03-29T18:07:03.231Z,75.28
2023-03-29T18:09:49.238Z,97.93
2023-03-29T18:12:34.440Z,89.72
2023-03-29T18:15:20.254Z,64.38
2023-03-29T18:18:04.963Z,66.03
2023-03-29T18:23:37.997Z,64.60
2023-03-29T18:26:22.967Z,69.70
2023-03-29T18:31:55.067Z,61.90
2023-03-29T18:34:39.661Z,57.85
2023-03-29T18:40:10.010Z,57.33
2023-03-29T18:42:54.912Z,55.58
2023-03-29T18:45:40.024Z,55.15
2023-03-29T18:48:25.433Z,65.72
2023-03-29T18:51:12.034Z,67.60
2023-03-29T18:53:57.158Z,71.03
2023-03-29T18:56:42.786Z,77.25
2023-03-29T18:59:27.858Z,71.38
2023-03-29T19:02:13.564Z,72.90
2023-03-29T19:04:58.225Z,76.93
2023-03-29T19:10:27.719Z,53.38
2023-03-29T19:13:12.686Z,53.22
2023-03-29T19:15:58.215Z,50.08
2023-03-29T19:18:43.329Z,45.15
2023-03-29T19:21:30.930Z,40.55
2023-03-29T19:24:16.162Z,47.40
2023-03-29T19:29:46.465Z,37.15
2023-03-29T19:32:33.196Z,46.45
2023-03-29T19:35:18.531Z,47.65
2023-03-29T19:38:06.761Z,40.58
2023-03-29T19:40:51.932Z,37.10
2023-03-29T19:43:39.465Z,30.73
2023-03-29T19:46:24.787Z,25.88
2023-03-29T19:51:57.646Z,20.67
2023-03-29T19:54:43.556Z,24.90
2023-03-29T19:57:28.246Z,26.05
2023-03-29T20:00:18.022Z,21.17
2023-03-29T20:03:02.710Z,23.15
2023-03-29T20:08:32.018Z,33.45
2023-03-29T20:14:04.804Z,24.85
2023-03-29T20:16:50.191Z,23.95
2023-03-29T20:19:35.905Z,24.83
2023-03-29T20:22:21.002Z,26.65
2023-03-29T20:25:06.005Z,35.63
2023-03-29T20:27:50.979Z,54.65
2023-03-29T20:30:36.007Z,59.67
2023-03-29T20:33:21.392Z,57.88
2023-03-29T20:38:51.804Z,45.38
2023-03-29T20:41:37.630Z,40.47
2023-03-29T20:44:25.680Z,35.80
2023-03-29T20:47:13.483Z,23.77
2023-03-29T20:49:58.136Z,23.42
2023-03-29T20:52:43.045Z,20.58
2023-03-29T20:55:29.698Z,21.08
2023-03-29T20:58:15.173Z,18.58
2023-03-29T21:00:59.780Z,16.17
2023-03-29T21:03:44.788Z,17.10
2023-03-29T21:09:14.293Z,22.25
2023-03-29T21:11:59.240Z,37.80
2023-03-29T21:14:44.122Z,31.60
2023-03-29T21:17:29.268Z,27.30
2023-03-29T21:20:14.924Z,19.92
2023-03-29T21:23:00.400Z,21.30
2023-03-29T21:25:45.694Z,27.10
2023-03-29T21:28:30.296Z,24.35
2023-03-29T21:31:15.378Z,33.95
2023-03-29T21:34:00.373Z,25.77
2023-03-29T21:39:30.154Z,24.45
2023-03-29T21:42:14.860Z,20.90
2023-03-29T21:45:01.161Z,22.23
2023-03-29T21:47:45.998Z,20.30
2023-03-29T21:53:19.147Z,25.33
2023-03-29T21:56:04.393Z,22.88
2023-03-29T22:01:33.813Z,25.10
2023-03-29T22:04:33.120Z,23.13
2023-03-29T22:07:25.847Z,23.52
2023-03-29T22:10:11.976Z,19.52
2023-03-29T22:12:56.759Z,26.77
2023-03-29T22:18:29.451Z,18.02
2023-03-29T22:21:29.845Z,20.65
2023-03-29T22:24:15.674Z,22.80
2023-03-29T22:27:00.397Z,32.42
2023-03-29T22:29:45.465Z,44.78
2023-03-29T22:32:31.338Z,49.70
2023-03-29T22:35:16.225Z,64.03
2023-03-29T22:38:01.187Z,74.50
2023-03-29T22:43:31.556Z,55.17
2023-03-29T22:46:16.324Z,40.35
2023-03-29T22:49:01.266Z,31.98
2023-03-29T22:51:46.184Z,20.90
2023-03-29T22:54:31.286Z,26.33
2023-03-29T22:57:16.020Z,28.35
2023-03-29T23:00:01.247Z,24.48
2023-03-29T23:02:45.934Z,27.65
2023-03-29T23:05:30.542Z,23.70
2023-03-29T23:08:15.812Z,18.33
2023-03-29T23:11:02.833Z,12.45
2023-03-29T23:13:48.088Z,16.55
2023-03-29T23:16:33.184Z,19.17
2023-03-29T23:22:02.961Z,11.90
2023-03-29T23:24:48.054Z,15.68
2023-03-29T23:27:32.734Z,15.82
2023-03-29T23:30:21.106Z,15.77
2023-03-29T23:33:06.317Z,16.08
2023-03-29T23:35:51.497Z,15.73
2023-03-29T23:38:38.229Z,20.92
2023-03-29T23:41:27.795Z,17.70
2023-03-29T23:44:12.192Z,19.02
2023-03-29T23:46:58.288Z,20.90
2023-03-29T23:49:44.672Z,28.10
2023-03-29T23:52:34.464Z,25.45
2023-03-29T23:55:19.678Z,27.10
2023-03-29T23:58:04.180Z,23.70
